Time;durP1;ratioP1;P1;durP2;ratioP2;P2;SDS_P1;SDS_P2;PMS_P1;PMS_P2;Temp;Humidity;BMP_temperature;BMP_pressure;BME280_temperature;BME280_humidity;BME280_pressure;Samples;Min_cycle;Max_cycle;Signal;HPM_P1;HPM_P2
2021/04/24 00:02:11;;;;;;;36.93;19.73;;;;;;;2.43;74.63;98782.74;1731829;81;21099;-71
2021/04/24 00:04:38;;;;;;;35.83;20.20;;;;;;;2.48;74.61;98776.27;1780570;80;21158;-71
2021/04/24 00:07:08;;;;;;;41.85;20.97;;;;;;;2.49;76.19;98779.76;1762158;81;21465;-71
2021/04/24 00:09:35;;;;;;;40.52;20.37;;;;;;;2.51;75.53;98779.03;1780739;80;21244;-71
2021/04/24 00:12:01;;;;;;;38.42;19.67;;;;;;;2.50;75.89;98777.39;1761978;81;21132;-71
2021/04/24 00:14:27;;;;;;;38.73;19.70;;;;;;;2.54;75.98;98776.74;1780653;80;21043;-71
2021/04/24 00:16:53;;;;;;;44.55;21.37;;;;;;;2.59;74.17;98772.11;1731829;81;21167;-71
2021/04/24 00:19:19;;;;;;;33.80;19.52;;;;;;;2.62;74.51;98774.36;1780737;80;21493;-71
2021/04/24 00:21:46;;;;;;;40.48;17.90;;;;;;;2.66;76.13;98776.94;1780643;79;21142;-71
2021/04/24 00:24:12;;;;;;;35.92;19.80;;;;;;;2.65;76.17;98774.45;1780652;80;21119;-71
2021/04/24 00:26:38;;;;;;;33.10;15.95;;;;;;;2.67;75.43;98773.74;1780628;79;21048;-71
2021/04/24 00:29:04;;;;;;;37.13;18.05;;;;;;;2.76;74.81;98775.97;1762058;81;21096;-71
2021/04/24 00:31:30;;;;;;;33.83;17.80;;;;;;;2.81;74.54;98773.47;1780638;79;21134;-72
2021/04/24 00:33:57;;;;;;;37.65;18.45;;;;;;;2.88;74.25;98761.92;1754424;81;22143;-71
2021/04/24 00:36:23;;;;;;;36.55;18.40;;;;;;;2.87;74.25;98758.42;1750608;81;21498;-71
2021/04/24 00:38:50;;;;;;;36.73;16.90;;;;;;;2.81;75.66;98749.89;1732435;82;21136;-72
2021/04/24 00:41:17;;;;;;;37.55;17.45;;;;;;;2.84;74.84;98760.20;1732416;81;21057;-71
2021/04/24 00:43:43;;;;;;;41.75;20.90;;;;;;;2.83;74.96;98759.90;1756814;80;21491;-71
2021/04/24 00:46:10;;;;;;;38.40;17.95;;;;;;;2.86;74.47;98768.83;1785225;79;21208;-71
2021/04/24 00:48:37;;;;;;;38.33;17.55;;;;;;;2.86;73.68;98762.14;1785208;80;21432;-71
2021/04/24 00:51:05;;;;;;;37.95;19.62;;;;;;;2.84;73.35;98765.55;1785222;79;21125;-71
2021/04/24 00:53:31;;;;;;;40.65;19.82;;;;;;;2.83;72.91;98769.27;1785155;80;21126;-71
2021/04/24 00:55:58;;;;;;;36.53;20.27;;;;;;;2.76;75.69;98766.61;1785202;79;21023;-71
2021/04/24 00:58:24;;;;;;;35.95;18.95;;;;;;;2.76;75.68;98771.95;1785199;80;21110;-71
2021/04/24 01:00:50;;;;;;;40.67;17.80;;;;;;;2.80;74.85;98758.45;1785154;79;21693;-72
2021/04/24 01:03:16;;;;;;;38.85;18.85;;;;;;;2.82;74.68;98764.43;1785165;80;21035;-71
2021/04/24 01:05:42;;;;;;;39.18;19.73;;;;;;;2.77;76.24;98760.73;1785189;79;21126;-71
2021/04/24 01:08:09;;;;;;;36.10;18.37;;;;;;;2.81;75.86;98759.27;1785176;80;21408;-71
2021/04/24 01:10:41;;;;;;;35.03;16.67;;;;;;;2.89;74.54;98763.05;1785159;79;21198;-71
2021/04/24 01:13:08;;;;;;;34.30;16.70;;;;;;;2.82;73.94;98758.26;1784732;80;21035;-71
2021/04/24 01:15:34;;;;;;;32.45;17.20;;;;;;;2.78;73.63;98759.70;1785189;79;21091;-71
2021/04/24 01:18:00;;;;;;;42.03;19.12;;;;;;;2.73;74.40;98758.16;1785176;80;21118;-71
2021/04/24 01:20:26;;;;;;;40.63;18.40;;;;;;;2.75;75.68;98755.59;1785195;80;21130;-71
2021/04/24 01:22:53;;;;;;;36.10;19.82;;;;;;;2.81;75.15;98757.41;1785126;79;22151;-71
2021/04/24 01:25:22;;;;;;;50.50;21.12;;;;;;;2.82;75.36;98751.05;1785118;80;21133;-71
2021/04/24 01:27:55;;;;;;;40.73;19.55;;;;;;;2.84;75.36;98757.52;1785164;79;21400;-72
2021/04/24 01:30:31;;;;;;;41.08;19.02;;;;;;;2.83;75.68;98751.87;1785202;80;21071;-72
2021/04/24 01:32:57;;;;;;;37.85;18.67;;;;;;;2.86;75.89;98758.13;1784682;80;21452;-71
2021/04/24 01:35:27;;;;;;;43.23;19.23;;;;;;;2.90;75.56;98759.33;1780780;80;21184;-71
2021/04/24 01:37:54;;;;;;;38.65;18.55;;;;;;;2.94;74.74;98745.84;1780641;79;21095;-71
2021/04/24 01:40:20;;;;;;;38.65;19.40;;;;;;;3.00;75.15;98745.52;1780759;80;21142;-71
2021/04/24 01:42:46;;;;;;;46.13;22.10;;;;;;;3.10;74.10;98746.69;1756612;80;21433;-71
2021/04/24 01:45:15;;;;;;;56.48;28.67;;;;;;;3.18;74.04;98750.98;1762141;81;21139;-71
2021/04/24 01:47:42;;;;;;;43.83;22.85;;;;;;;3.25;72.61;98745.08;1731640;80;21298;-72
2021/04/24 01:50:13;;;;;;;50.20;25.48;;;;;;;3.24;72.52;98736.71;1780756;80;21440;-71
2021/04/24 01:52:39;;;;;;;40.78;21.50;;;;;;;3.28;71.86;98734.44;1780355;79;21427;-71
2021/04/24 01:55:17;;;;;;;38.98;19.37;;;;;;;3.22;73.56;98743.33;1780711;80;21015;-71
2021/04/24 01:57:45;;;;;;;45.00;22.93;;;;;;;3.24;74.34;98733.21;1780813;79;21051;-71
2021/04/24 02:00:16;;;;;;;54.00;24.10;;;;;;;3.30;72.25;98733.70;1780716;80;21186;-71
2021/04/24 02:02:42;;;;;;;51.40;26.85;;;;;;;3.35;71.50;98728.53;1780728;79;21495;-71
2021/04/24 02:05:10;;;;;;;42.00;20.27;;;;;;;3.32;71.75;98734.30;1780700;80;21421;-72
2021/04/24 02:07:37;;;;;;;35.13;17.85;;;;;;;3.33;72.75;98726.07;1762292;81;21041;-71
2021/04/24 02:10:10;;;;;;;35.08;17.50;;;;;;;3.34;73.83;98734.41;1780684;80;21487;-71
2021/04/24 02:12:38;;;;;;;35.65;16.42;;;;;;;3.36;73.85;98732.33;1761680;81;22041;-72
2021/04/24 02:15:06;;;;;;;46.28;20.97;;;;;;;3.39;73.07;98728.38;1780933;80;21141;-72
2021/04/24 02:17:33;;;;;;;53.65;23.80;;;;;;;3.38;73.15;98733.45;1762524;81;21100;-72
2021/04/24 02:19:59;;;;;;;42.65;20.75;;;;;;;3.39;72.78;98728.38;1756484;80;21067;-72
2021/04/24 02:22:25;;;;;;;46.35;23.92;;;;;;;3.37;72.90;98727.78;1731914;81;21023;-72
2021/04/24 02:24:58;;;;;;;42.98;22.58;;;;;;;3.45;72.90;98723.52;1780731;80;21201;-72
2021/04/24 02:27:25;;;;;;;46.45;25.23;;;;;;;3.53;72.56;98727.27;1761409;81;21044;-70
2021/04/24 02:29:51;;;;;;;52.33;24.45;;;;;;;3.56;71.85;98717.96;1780655;80;21138;-70
2021/04/24 02:32:19;;;;;;;48.50;24.65;;;;;;;3.56;71.40;98724.14;1762176;81;21041;-70
2021/04/24 02:34:46;;;;;;;67.27;39.10;;;;;;;3.54;71.22;98720.87;1780843;80;21411;-70
2021/04/24 02:37:15;;;;;;;49.48;27.60;;;;;;;3.49;70.92;98726.05;1780708;79;22142;-71
2021/04/24 02:39:43;;;;;;;46.83;22.80;;;;;;;3.47;71.04;98716.06;1780758;80;26708;-70
2021/04/24 02:42:13;;;;;;;45.60;24.18;;;;;;;3.46;71.15;98717.62;1780646;79;21027;-70
2021/04/24 02:44:40;;;;;;;34.65;19.70;;;;;;;3.48;71.25;98711.00;1780658;80;21275;-72
2021/04/24 02:47:06;;;;;;;32.88;19.27;;;;;;;3.55;71.30;98716.33;1780703;79;21429;-71
2021/04/24 02:49:32;;;;;;;36.25;17.82;;;;;;;3.58;72.80;98718.56;1780671;80;22066;-71
2021/04/24 02:51:59;;;;;;;37.25;20.70;;;;;;;3.64;71.79;98716.36;1780691;79;21043;-71
2021/04/24 02:54:25;;;;;;;35.73;17.12;;;;;;;3.74;70.17;98713.19;1762104;81;21057;-71
2021/04/24 02:56:52;;;;;;;41.83;17.32;;;;;;;3.77;70.09;98711.42;1780700;79;21112;-71
2021/04/24 02:59:18;;;;;;;56.68;22.73;;;;;;;3.81;69.54;98701.89;1762070;81;21032;-71
2021/04/24 03:01:45;;;;;;;31.95;17.42;;;;;;;3.84;69.22;98699.58;1780755;79;21246;-71
2021/04/24 03:04:12;;;;;;;29.32;14.63;;;;;;;3.89;68.94;98693.57;1762103;81;21132;-71
2021/04/24 03:06:38;;;;;;;32.75;15.83;;;;;;;3.93;68.52;98692.08;1780721;79;21015;-71
2021/04/24 03:09:04;;;;;;;35.70;17.62;;;;;;;3.94;68.18;98683.84;1731802;82;21116;-71
2021/04/24 03:11:31;;;;;;;39.65;17.32;;;;;;;3.94;68.23;98680.34;1780667;79;21110;-72
2021/04/24 03:13:57;;;;;;;36.15;18.73;;;;;;;3.91;68.57;98678.08;1762142;81;21247;-72
2021/04/24 03:16:24;;;;;;;37.50;18.73;;;;;;;3.90;68.02;98678.59;1780640;79;21090;-71
2021/04/24 03:18:53;;;;;;;40.95;19.35;;;;;;;3.87;67.84;98675.55;1762086;81;21608;-71
2021/04/24 03:21:20;;;;;;;43.15;21.57;;;;;;;3.85;67.90;98688.36;1780869;79;21046;-71
2021/04/24 03:23:47;;;;;;;35.43;15.28;;;;;;;3.85;67.78;98693.20;1762320;81;21080;-71
2021/04/24 03:26:13;;;;;;;40.38;17.37;;;;;;;3.84;67.97;98695.55;1780704;79;21249;-71
2021/04/24 03:28:39;;;;;;;30.85;14.90;;;;;;;3.92;67.83;98698.48;1762103;81;21147;-71
2021/04/24 03:31:05;;;;;;;29.80;14.87;;;;;;;3.99;68.01;98711.84;1780690;79;21031;-71
2021/04/24 03:33:31;;;;;;;31.37;15.08;;;;;;;3.98;68.73;98716.38;1762297;81;21175;-71
2021/04/24 03:35:58;;;;;;;28.87;14.15;;;;;;;4.01;68.00;98708.41;1767314;81;21057;-71
2021/04/24 03:38:24;;;;;;;35.30;17.95;;;;;;;3.99;67.69;98712.66;1767277;81;21269;-71
2021/04/24 03:40:50;;;;;;;47.62;22.07;;;;;;;3.97;68.21;98718.77;1788597;78;21657;-71
2021/04/24 03:43:16;;;;;;;33.48;12.80;;;;;;;4.00;68.18;98722.34;1788780;80;21150;-71
2021/04/24 03:45:42;;;;;;;37.42;19.48;;;;;;;4.04;67.96;98720.05;1788726;78;21085;-71
2021/04/24 03:48:08;;;;;;;32.60;16.97;;;;;;;4.09;67.74;98723.70;1788755;80;21067;-72
2021/04/24 03:50:34;;;;;;;32.88;15.68;;;;;;;4.16;67.81;98723.64;1788729;78;22141;-71
2021/04/24 03:53:01;;;;;;;23.95;12.70;;;;;;;4.23;67.87;98727.09;1788715;80;21126;-72
2021/04/24 03:55:27;;;;;;;24.92;10.93;;;;;;;4.27;67.67;98726.92;1788664;80;21022;-72
2021/04/24 03:57:56;;;;;;;33.98;12.30;;;;;;;4.32;67.19;98728.44;1788661;78;21122;-71
2021/04/24 04:00:26;;;;;;;29.63;13.25;;;;;;;4.34;67.50;98737.08;1788804;80;21126;-71
2021/04/24 04:03:00;;;;;;;23.95;9.63;;;;;;;4.39;67.23;98739.11;1788773;78;21194;-72
2021/04/24 04:05:31;;;;;;;18.07;9.05;;;;;;;4.45;66.07;98742.25;1788628;80;21031;-72
2021/04/24 04:07:59;;;;;;;23.70;8.85;;;;;;;4.63;66.49;98730.70;1788276;80;21066;-72
2021/04/24 04:10:26;;;;;;;17.12;7.95;;;;;;;4.73;66.77;98744.41;1787916;80;21070;-72
2021/04/24 04:12:52;;;;;;;17.62;8.10;;;;;;;4.80;66.86;98741.95;1788782;78;21134;-72
2021/04/24 04:15:19;;;;;;;21.20;8.75;;;;;;;4.88;66.46;98735.47;1788803;80;21226;-72
2021/04/24 04:18:02;;;;;;;34.75;18.37;;;;;;;4.92;66.53;98738.50;1739307;80;21059;-72
2021/04/24 04:20:29;;;;;;;26.87;10.90;;;;;;;4.98;65.62;98733.58;1788823;80;21087;-71
2021/04/24 04:22:55;;;;;;;23.50;13.88;;;;;;;4.96;65.50;98731.13;1764506;80;21102;-71
2021/04/24 04:25:22;;;;;;;22.58;9.88;;;;;;;5.02;65.73;98735.58;1788936;80;21499;-71
2021/04/24 04:27:48;;;;;;;27.93;9.15;;;;;;;5.07;65.63;98742.97;1788926;78;22090;-71
2021/04/24 04:30:15;;;;;;;19.77;8.13;;;;;;;5.11;65.70;98749.52;1788726;80;21483;-71
2021/04/24 04:32:41;;;;;;;21.68;11.63;;;;;;;5.17;65.53;98753.17;1788799;78;21094;-71
2021/04/24 04:35:09;;;;;;;25.12;13.05;;;;;;;5.18;65.17;98750.25;1786619;78;21046;-71
2021/04/24 04:37:35;;;;;;;26.42;11.83;;;;;;;5.19;64.95;98755.92;1785281;79;21011;-71
2021/04/24 04:40:01;;;;;;;32.98;12.85;;;;;;;5.20;64.94;98757.55;1785210;80;21133;-71
2021/04/24 04:42:28;;;;;;;20.37;9.35;;;;;;;5.22;64.65;98759.52;1785173;79;21030;-71
2021/04/24 04:44:54;;;;;;;27.95;10.00;;;;;;;5.26;64.64;98762.03;1785269;80;21138;-71
2021/04/24 04:47:20;;;;;;;25.72;8.88;;;;;;;5.29;64.53;98762.09;1785299;79;21109;-71
2021/04/24 04:49:47;;;;;;;23.57;10.98;;;;;;;5.33;64.27;98762.77;1785183;80;21027;-71
2021/04/24 04:52:13;;;;;;;12.68;8.48;;;;;;;5.37;64.38;98764.46;1785250;79;22073;-71
2021/04/24 04:54:39;;;;;;;22.00;9.35;;;;;;;5.43;64.41;98764.09;1785118;80;21110;-71
2021/04/24 04:57:06;;;;;;;23.05;9.45;;;;;;;5.51;64.08;98770.48;1785180;79;21063;-71
2021/04/24 04:59:32;;;;;;;19.87;8.28;;;;;;;5.57;64.33;98769.58;1785171;80;21118;-71
2021/04/24 05:01:58;;;;;;;26.05;8.65;;;;;;;5.64;64.37;98768.44;1785248;79;21003;-71
2021/04/24 05:04:25;;;;;;;20.23;10.35;;;;;;;5.74;64.08;98771.09;1785247;80;22070;-71
2021/04/24 05:06:51;;;;;;;17.80;10.13;;;;;;;5.81;63.69;98773.13;1756701;80;21512;-71
2021/04/24 05:09:19;;;;;;;17.98;8.88;;;;;;;5.89;63.75;98774.95;1785131;80;21117;-71
2021/04/24 05:11:45;;;;;;;17.60;8.20;;;;;;;6.00;63.61;98770.70;1785247;79;20999;-70
2021/04/24 05:14:12;;;;;;;26.97;9.18;;;;;;;6.08;63.48;98773.05;1785177;80;21138;-70
2021/04/24 05:16:38;;;;;;;42.10;13.13;;;;;;;6.17;63.38;98774.87;1785228;79;22059;-70
2021/04/24 05:19:04;;;;;;;28.12;11.50;;;;;;;6.27;62.76;98776.45;1785084;80;21153;-71
2021/04/24 05:21:31;;;;;;;30.85;14.03;;;;;;;6.31;62.86;98784.34;1785286;79;21495;-70
2021/04/24 05:23:57;;;;;;;60.98;22.85;;;;;;;6.38;62.75;98783.71;1785224;80;21607;-70
2021/04/24 05:26:23;;;;;;;31.77;16.45;;;;;;;6.45;62.82;98781.73;1785152;79;21110;-70
2021/04/24 05:28:49;;;;;;;41.18;21.00;;;;;;;6.57;62.92;98788.44;1785214;80;21225;-70
2021/04/24 05:31:15;;;;;;;34.67;14.43;;;;;;;6.68;62.42;98786.82;1785077;79;21071;-71
2021/04/24 05:33:42;;;;;;;22.85;11.33;;;;;;;6.71;62.27;98782.30;1785148;80;21130;-71
2021/04/24 05:38:49;;;;;;;22.35;10.53;;;;;;;6.91;62.15;98785.95;1847606;76;22647;-70
2021/04/24 05:41:20;;;;;;;;;;;;;;;6.98;62.20;98790.68;1810742;78;21400;-70
2021/04/24 05:43:43;;;;;;;18.40;8.23;;;;;;;7.09;61.56;98793.88;1785102;80;21270;-71
2021/04/24 05:46:09;;;;;;;18.87;9.65;;;;;;;7.22;61.19;98795.49;1785784;79;20949;-71
2021/04/24 05:48:35;;;;;;;20.77;9.00;;;;;;;7.25;61.23;98793.66;1785846;80;21042;-71
2021/04/24 05:51:01;;;;;;;17.57;10.93;;;;;;;7.30;61.05;98786.50;1785933;79;21404;-71
2021/04/24 05:53:27;;;;;;;21.50;11.08;;;;;;;7.43;61.25;98786.73;1785864;80;21098;-71
2021/04/24 05:55:53;;;;;;;22.27;11.50;;;;;;;7.60;60.03;98785.42;1785920;79;21197;-71
2021/04/24 05:58:19;;;;;;;21.82;11.18;;;;;;;7.73;59.34;98781.09;1785856;80;21011;-72
2021/04/24 06:00:46;;;;;;;22.42;8.65;;;;;;;7.94;60.53;98775.51;1785914;79;21019;-71
2021/04/24 06:03:12;;;;;;;22.98;11.00;;;;;;;8.14;59.73;98771.81;1785873;79;21031;-71
2021/04/24 06:05:38;;;;;;;20.80;10.23;;;;;;;7.92;56.30;98774.94;1785959;79;21000;-71
2021/04/24 06:08:05;;;;;;;38.75;22.32;;;;;;;8.23;57.75;98774.92;1785814;80;21234;-71
2021/04/24 06:10:31;;;;;;;23.83;12.80;;;;;;;8.38;57.47;98773.84;1785749;79;21102;-71
2021/04/24 06:12:57;;;;;;;18.10;10.88;;;;;;;8.42;58.63;98770.11;1785889;80;21531;-71
2021/04/24 06:15:23;;;;;;;18.60;9.00;;;;;;;8.55;58.06;98763.02;1785813;80;21166;-72
2021/04/24 06:17:50;;;;;;;18.07;9.00;;;;;;;8.57;57.65;98763.59;1785847;79;21504;-71
2021/04/24 06:20:17;;;;;;;20.20;10.65;;;;;;;8.65;58.12;98757.76;1785821;80;21372;-71
2021/04/24 06:22:43;;;;;;;16.48;8.73;;;;;;;8.67;56.47;98756.97;1785827;79;21023;-71
2021/04/24 06:25:12;;;;;;;28.55;12.25;;;;;;;8.66;56.94;98744.53;1785813;80;21130;-71
2021/04/24 06:27:38;;;;;;;20.25;13.43;;;;;;;8.73;57.02;98750.58;1785872;79;21111;-71
2021/04/24 06:30:06;;;;;;;24.43;10.13;;;;;;;8.85;56.82;98742.34;1785816;80;21122;-71
2021/04/24 06:32:33;;;;;;;23.25;10.60;;;;;;;8.97;56.13;98748.45;1785887;79;21185;-71
2021/04/24 06:34:59;;;;;;;21.00;8.80;;;;;;;8.99;55.68;98749.55;1785867;80;21504;-71
2021/04/24 06:37:25;;;;;;;22.02;10.90;;;;;;;9.02;55.11;98751.74;1790627;79;21098;-71
2021/04/24 06:39:51;;;;;;;22.93;12.70;;;;;;;9.22;55.81;98745.75;1800441;79;21118;-71
2021/04/24 06:42:17;;;;;;;19.12;9.98;;;;;;;9.60;54.64;98751.05;1800296;78;21130;-71
2021/04/24 06:44:44;;;;;;;19.25;8.75;;;;;;;9.93;55.05;98749.73;1800337;79;21198;-71
2021/04/24 06:47:10;;;;;;;17.45;7.53;;;;;;;10.11;53.80;98750.69;1800220;78;21090;-71
2021/04/24 06:49:36;;;;;;;13.93;9.73;;;;;;;10.15;54.45;98745.02;1799984;79;21538;-72
2021/04/24 06:52:03;;;;;;;18.60;8.75;;;;;;;10.05;52.50;98731.41;1799777;78;21388;-71
2021/04/24 06:54:29;;;;;;;18.52;9.00;;;;;;;10.17;53.32;98744.25;1780942;80;21484;-71
2021/04/24 06:56:55;;;;;;;20.30;10.48;;;;;;;10.31;51.72;98741.38;1780760;79;22067;-71
2021/04/24 06:59:21;;;;;;;20.70;11.03;;;;;;;10.24;51.03;98741.33;1780897;80;21000;-71
2021/04/24 07:01:48;;;;;;;20.02;10.45;;;;;;;10.09;51.71;98740.12;1731933;81;21132;-71
2021/04/24 07:04:14;;;;;;;19.87;9.60;;;;;;;10.97;52.22;98734.17;1780862;80;21189;-71
2021/04/24 07:06:40;;;;;;;23.85;13.03;;;;;;;10.97;52.22;98734.17;1780889;79;21075;-72
2021/04/24 07:09:06;;;;;;;34.25;19.07;;;;;;;11.64;51.09;98733.30;1731970;82;21268;-72
2021/04/24 07:11:32;;;;;;;27.80;12.88;;;;;;;12.09;47.24;98729.00;1780798;79;21496;-72
2021/04/24 07:13:59;;;;;;;18.70;9.13;;;;;;;12.35;46.70;98725.17;1731920;82;21100;-72
2021/04/24 07:16:25;;;;;;;17.00;7.40;;;;;;;12.57;43.68;98734.39;1780874;79;21036;-72
2021/04/24 07:18:51;;;;;;;19.80;9.43;;;;;;;13.01;46.82;98728.82;1732009;82;21116;-72
2021/04/24 07:21:17;;;;;;;20.90;11.30;;;;;;;13.62;46.15;98723.09;1780822;79;21294;-72
2021/04/24 07:23:43;;;;;;;15.10;10.05;;;;;;;14.26;46.13;98728.30;1780727;80;21035;-72
2021/04/24 07:26:10;;;;;;;14.47;6.12;;;;;;;13.94;44.59;98730.22;1731984;81;21128;-72
2021/04/24 07:28:36;;;;;;;14.75;6.12;;;;;;;13.19;45.28;98726.83;1780752;80;21051;-72
2021/04/24 07:31:03;;;;;;;13.22;6.90;;;;;;;12.96;45.04;98731.00;1762197;81;21437;-72
2021/04/24 07:33:29;;;;;;;15.15;7.97;;;;;;;12.43;44.63;98735.49;1780869;80;21957;-72
2021/04/24 07:35:55;;;;;;;12.70;6.75;;;;;;;11.95;45.50;98739.58;1762229;81;21033;-72
2021/04/24 07:38:22;;;;;;;15.40;9.38;;;;;;;11.77;45.57;98738.73;1783299;79;21070;-72
2021/04/24 07:40:48;;;;;;;11.40;7.12;;;;;;;11.93;45.39;98737.69;1785215;79;20992;-72
2021/04/24 07:43:15;;;;;;;13.75;5.87;;;;;;;13.03;43.95;98734.24;1756709;80;21106;-72
2021/04/24 07:45:41;;;;;;;14.83;7.50;;;;;;;13.33;41.36;98737.42;1785222;79;21491;-72
2021/04/24 07:48:07;;;;;;;15.03;10.68;;;;;;;12.39;42.33;98737.66;1785154;80;21550;-72
2021/04/24 07:50:34;;;;;;;23.60;15.10;;;;;;;11.77;39.94;98744.16;1785176;79;21146;-72
2021/04/24 07:53:00;;;;;;;24.25;19.05;;;;;;;11.30;39.54;98743.25;1784981;80;21095;-72
2021/04/24 07:55:30;;;;;;;14.03;7.85;;;;;;;10.50;37.36;98745.02;1785327;80;21138;-72
2021/04/24 07:57:56;;;;;;;9.03;3.98;;;;;;;12.10;40.24;98737.42;1785158;80;21150;-70
2021/04/24 08:00:23;;;;;;;10.68;5.83;;;;;;;13.26;40.10;98735.55;1785078;80;21110;-71
2021/04/24 08:02:49;;;;;;;8.40;4.53;;;;;;;12.06;36.71;98735.80;1785133;79;21130;-71
2021/04/24 08:05:19;;;;;;;6.75;3.98;;;;;;;12.08;34.30;98731.45;1785274;80;21138;-71
2021/04/24 08:07:45;;;;;;;11.57;5.17;;;;;;;12.68;34.63;98729.19;1785199;79;21015;-71
2021/04/24 08:10:12;;;;;;;9.70;6.90;;;;;;;14.78;35.93;98716.35;1785263;80;21198;-71
2021/04/24 08:12:38;;;;;;;9.60;6.40;;;;;;;14.44;33.36;98721.34;1785204;79;21114;-70
2021/04/24 08:15:09;;;;;;;7.70;4.33;;;;;;;13.23;35.06;98721.12;1785240;80;21150;-70
2021/04/24 08:17:36;;;;;;;13.70;8.43;;;;;;;12.69;36.71;98732.72;1785141;79;20912;-70
2021/04/24 08:20:02;;;;;;;13.50;6.92;;;;;;;12.46;38.54;98728.69;1756656;80;21527;-70
2021/04/24 08:22:29;;;;;;;10.35;5.37;;;;;;;12.76;39.12;98725.09;1785267;79;21237;-70
2021/04/24 08:24:55;;;;;;;22.37;15.53;;;;;;;12.70;39.27;98728.36;1785104;80;21137;-70
2021/04/24 08:27:21;;;;;;;25.65;18.42;;;;;;;14.83;37.78;98720.40;1785236;79;20995;-71
2021/04/24 08:29:47;;;;;;;12.88;6.22;;;;;;;16.54;35.88;98721.45;1785210;80;21177;-71
2021/04/24 08:32:13;;;;;;;12.93;7.45;;;;;;;18.25;33.71;98715.88;1785121;79;21051;-71
2021/04/24 08:34:39;;;;;;;12.82;6.35;;;;;;;17.88;32.60;98713.77;1785267;80;21262;-71
2021/04/24 08:37:07;;;;;;;11.03;6.33;;;;;;;16.36;28.40;98722.58;1785063;79;22926;-71
2021/04/24 08:39:33;;;;;;;9.07;4.37;;;;;;;14.95;31.75;98721.63;1781097;80;21056;-71
2021/04/24 08:42:00;;;;;;;17.45;9.55;;;;;;;14.35;32.69;98721.67;1780724;79;21466;-71
2021/04/24 08:44:26;;;;;;;20.10;12.65;;;;;;;13.33;30.84;98717.52;1780732;80;21024;-71
2021/04/24 08:46:53;;;;;;;10.78;5.42;;;;;;;14.49;31.94;98721.85;1780693;79;21183;-71
2021/04/24 08:49:22;;;;;;;7.42;5.08;;;;;;;13.66;32.09;98726.86;1780638;80;21111;-71
2021/04/24 08:51:52;;;;;;;14.65;6.67;;;;;;;13.34;33.09;98725.98;1780629;79;21086;-71
2021/04/24 08:54:20;;;;;;;15.23;6.00;;;;;;;13.44;33.54;98715.03;1780794;80;21003;-71
2021/04/24 08:56:46;;;;;;;10.63;4.65;;;;;;;13.98;30.20;98711.38;1762156;81;21435;-70
2021/04/24 08:59:12;;;;;;;7.12;3.95;;;;;;;13.34;31.35;98718.63;1780693;80;22248;-70
2021/04/24 09:01:39;;;;;;;16.77;5.45;;;;;;;13.20;30.39;98717.61;1762150;81;21109;-70
2021/04/24 09:04:05;;;;;;;49.33;9.33;;;;;;;12.95;33.07;98711.70;1780686;80;21048;-71
2021/04/24 09:06:33;;;;;;;14.83;5.37;;;;;;;12.59;33.94;98710.45;1762187;81;21076;-70
2021/04/24 09:09:03;;;;;;;14.33;5.83;;;;;;;11.98;32.15;98716.52;1780692;80;21087;-71
2021/04/24 09:11:29;;;;;;;30.62;5.50;;;;;;;11.95;32.94;98719.76;1762127;81;21141;-71
2021/04/24 09:14:03;;;;;;;11.30;5.67;;;;;;;12.20;34.00;98718.39;1756445;80;21459;-71
2021/04/24 09:16:31;;;;;;;7.53;4.67;;;;;;;13.77;32.07;98706.65;1731975;81;21496;-71
2021/04/24 09:18:57;;;;;;;11.43;4.65;;;;;;;12.94;31.08;98708.16;1780727;80;21174;-71
2021/04/24 09:21:27;;;;;;;9.58;5.03;;;;;;;12.53;31.03;98718.89;1780728;79;21023;-71
2021/04/24 09:23:53;;;;;;;9.80;5.40;;;;;;;12.96;30.16;98711.96;1780809;80;21401;-71
2021/04/24 09:26:25;;;;;;;6.28;4.20;;;;;;;12.68;32.17;98714.78;1780628;79;20957;-69
2021/04/24 09:29:01;;;;;;;10.65;5.40;;;;;;;12.16;30.55;98710.53;1780742;80;21496;-71
2021/04/24 09:31:27;;;;;;;10.23;4.97;;;;;;;12.49;31.34;98713.20;1780689;79;21157;-70
2021/04/24 09:34:00;;;;;;;9.55;4.60;;;;;;;13.35;32.17;98705.83;1780770;80;21090;-71
2021/04/24 09:36:34;;;;;;;8.55;4.12;;;;;;;14.82;28.77;98701.85;1780825;79;22081;-71
2021/04/24 09:39:05;;;;;;;9.10;4.55;;;;;;;16.46;27.54;98696.16;1755066;81;21136;-71
2021/04/24 09:41:36;;;;;;;7.60;4.15;;;;;;;17.48;25.70;98692.18;1732463;81;21558;-72
2021/04/24 09:44:13;;;;;;;9.40;3.87;;;;;;;18.23;23.57;98690.69;1732422;82;21045;-72
2021/04/24 09:46:53;;;;;;;11.07;4.47;;;;;;;17.84;24.27;98682.59;1703286;82;21105;-72
2021/04/24 09:49:31;;;;;;;7.42;3.62;;;;;;;15.61;24.83;98687.17;1732399;82;22039;-71
2021/04/24 09:52:06;;;;;;;7.90;3.55;;;;;;;15.49;25.93;98693.06;1785128;79;21097;-71
2021/04/24 09:54:45;;;;;;;7.42;3.08;;;;;;;13.44;28.15;98683.73;1757768;80;21420;-70
2021/04/24 09:57:19;;;;;;;;;;;;;;;12.70;29.48;98696.28;1787817;79;21502;-71
2021/04/24 10:00:00;;;;;;;6.47;3.27;;;;;;;15.53;26.41;98677.70;1784514;80;20219;-72
2021/04/24 10:05:19;;;;;;;7.70;3.05;;;;;;;18.29;22.22;98677.10;1890253;76;22550;-71
2021/04/24 10:07:49;;;;;;;9.18;3.72;;;;;;;17.70;24.70;98669.52;1854584;77;21485;-71
2021/04/24 10:10:25;;;;;;;6.60;3.15;;;;;;;14.92;25.12;98680.45;1854142;77;22013;-71
2021/04/24 10:13:05;;;;;;;9.15;3.25;;;;;;;13.67;26.67;98680.83;1854138;77;21547;-71
2021/04/24 10:15:43;;;;;;;9.98;3.30;;;;;;;13.21;28.09;98671.61;1854137;77;21063;-71
2021/04/24 10:18:13;;;;;;;8.58;3.33;;;;;;;12.81;29.59;98678.83;1854389;77;21552;-70
2021/04/24 10:20:45;;;;;;;7.80;3.55;;;;;;;12.58;30.28;98677.56;1854167;77;21099;-71
2021/04/24 10:23:13;;;;;;;9.38;5.28;;;;;;;12.71;30.80;98672.88;1854100;77;22168;-71
2021/04/24 10:25:42;;;;;;;7.50;3.98;;;;;;;13.11;30.82;98668.91;1854343;77;20969;-71
2021/04/24 10:28:08;;;;;;;8.68;3.00;;;;;;;13.26;30.54;98661.52;1821291;77;20965;-70
2021/04/24 10:30:34;;;;;;;7.85;3.98;;;;;;;13.50;29.94;98657.55;1854172;77;21118;-70
2021/04/24 10:33:03;;;;;;;8.28;4.05;;;;;;;13.68;29.25;98651.16;1854108;77;21134;-70
2021/04/24 10:35:30;;;;;;;17.53;5.90;;;;;;;13.08;28.95;98651.25;1785097;80;21196;-72
2021/04/24 10:37:56;;;;;;;6.50;3.60;;;;;;;13.09;30.50;98647.98;1783073;80;21536;-71
2021/04/24 10:40:23;;;;;;;14.60;6.42;;;;;;;12.69;29.48;98650.60;1784798;80;21138;-71
2021/04/24 10:42:54;;;;;;;7.03;4.37;;;;;;;13.03;30.57;98643.66;1784749;80;21082;-71
2021/04/24 10:45:31;;;;;;;10.68;6.17;;;;;;;13.44;30.73;98649.15;1784854;80;21106;-70
2021/04/24 10:47:58;;;;;;;17.52;9.45;;;;;;;13.75;30.13;98648.34;1784201;80;22170;-71
2021/04/24 10:50:46;;;;;;;9.70;5.47;;;;;;;13.45;27.84;98651.32;1784751;80;21087;-71
2021/04/24 10:53:24;;;;;;;20.63;11.27;;;;;;;13.42;28.73;98652.70;1784949;80;21099;-71
2021/04/24 10:55:53;;;;;;;17.07;7.72;;;;;;;13.47;29.09;98648.57;1783350;80;21237;-71
2021/04/24 10:58:21;;;;;;;9.35;4.37;;;;;;;13.69;30.07;98648.70;1788554;80;21503;-71
2021/04/24 11:01:00;;;;;;;13.65;6.40;;;;;;;13.71;30.42;98654.11;1784851;80;21249;-71
2021/04/24 11:03:48;;;;;;;7.80;4.00;;;;;;;13.97;30.56;98638.91;1786456;80;21201;-70
2021/04/24 11:06:22;;;;;;;10.07;4.83;;;;;;;14.23;30.44;98647.11;1762017;80;21110;-71
2021/04/24 11:09:17;;;;;;;9.38;4.80;;;;;;;13.55;29.43;98652.60;1773434;80;21146;-72
2021/04/24 11:11:45;;;;;;;8.05;3.95;;;;;;;13.23;30.37;98638.11;1761749;80;21022;-70
2021/04/24 11:14:11;;;;;;;31.70;12.15;;;;;;;13.22;30.61;98632.41;1723314;81;21197;-71
2021/04/24 11:16:37;;;;;;;12.95;6.65;;;;;;;13.34;30.97;98634.80;1709224;81;21106;-71
2021/04/24 11:19:03;;;;;;;9.15;4.08;;;;;;;13.32;30.46;98632.34;1685803;81;21439;-71
2021/04/24 11:21:30;;;;;;;9.83;4.87;;;;;;;13.17;29.60;98632.43;1761193;81;21078;-71
2021/04/24 11:24:14;;;;;;;7.58;4.50;;;;;;;13.38;31.42;98629.05;1761161;81;21101;-71
2021/04/24 11:26:46;;;;;;;12.85;5.87;;;;;;;13.55;31.75;98625.38;1761297;81;21195;-70
2021/04/24 11:29:33;;;;;;;10.20;5.97;;;;;;;14.03;31.46;98620.87;1761191;81;21094;-71
2021/04/24 11:32:06;;;;;;;10.65;4.58;;;;;;;14.28;30.38;98624.45;1761259;81;21074;-72
2021/04/24 11:34:48;;;;;;;12.60;5.53;;;;;;;14.27;29.64;98621.44;1761152;81;21059;-70
2021/04/24 11:37:23;;;;;;;10.88;4.62;;;;;;;14.45;29.29;98619.38;1761187;81;21066;-71